Time;durP1;ratioP1;P1;durP2;ratioP2;P2;SDS_P1;SDS_P2;PMS_P1;PMS_P2;Temp;Humidity;BMP_temperature;BMP_pressure;BME280_temperature;BME280_humidity;BME280_pressure;Samples;Min_cycle;Max_cycle;Signal;HPM_P1;HPM_P2
2022/01/21 00:01:41;;;;;;;5.60;1.85;;;24.40;81.60;;;;;;5074120;28;20021;-55
2022/01/21 00:04:10;;;;;;;3.03;1.63;;;24.40;81.70;;;;;;5073820;28;20039;-48
2022/01/21 00:06:38;;;;;;;3.40;1.60;;;24.40;81.20;;;;;;5074362;28;20066;-57
2022/01/21 00:09:06;;;;;;;4.03;1.50;;;24.50;81.20;;;;;;5072029;28;20058;-51
2022/01/21 00:11:35;;;;;;;4.10;1.95;;;24.50;81.10;;;;;;5073903;28;20035;-59
2022/01/21 00:14:03;;;;;;;6.57;1.77;;;24.50;81.40;;;;;;5073296;28;20028;-59
2022/01/21 00:16:30;;;;;;;3.70;1.67;;;24.50;80.20;;;;;;5073949;28;20025;-59
2022/01/21 00:19:05;;;;;;;4.95;1.55;;;24.50;81.20;;;;;;5072385;28;20017;-57
2022/01/21 00:32:38;;;;;;;3.65;1.45;;;24.70;80.80;;;;;;5074570;28;20494;-58
2022/01/21 00:35:06;;;;;;;4.75;1.33;;;24.70;80.70;;;;;;5073935;28;20032;-62
2022/01/21 00:37:37;;;;;;;4.05;1.58;;;24.70;80.40;;;;;;5073317;28;20463;-58
2022/01/21 00:40:08;;;;;;;3.78;1.33;;;24.80;79.70;;;;;;5073379;28;20084;-57
2022/01/21 00:45:12;;;;;;;3.92;1.73;;;24.90;79.40;;;;;;5073163;28;20024;-60
2022/01/21 00:47:40;;;;;;;5.10;1.58;;;24.90;79.70;;;;;;5072072;28;20032;-54
2022/01/21 00:50:09;;;;;;;6.70;1.50;;;24.90;80.10;;;;;;5072877;28;20081;-61
2022/01/21 00:52:36;;;;;;;6.57;1.75;;;24.80;79.90;;;;;;5072930;28;20024;-57
2022/01/21 00:55:05;;;;;;;4.07;1.75;;;24.90;79.10;;;;;;5071808;28;20048;-57
2022/01/21 00:57:33;;;;;;;4.05;1.65;;;25.00;79.40;;;;;;5073395;28;20459;-53
2022/01/21 01:00:00;;;;;;;5.43;1.80;;;25.00;79.50;;;;;;5073039;28;20029;-57
2022/01/21 01:02:29;;;;;;;4.70;1.40;;;25.10;79.00;;;;;;5073185;28;20031;-53
2022/01/21 01:04:56;;;;;;;3.05;1.45;;;25.10;79.20;;;;;;5071074;28;20111;-56
2022/01/21 01:07:24;;;;;;;3.75;1.85;;;25.10;79.40;;;;;;5072311;28;20104;-56
2022/01/21 01:09:54;;;;;;;4.45;1.55;;;25.10;79.10;;;;;;5072582;28;20020;-58
2022/01/21 01:12:54;;;;;;;4.22;1.23;;;25.20;78.60;;;;;;5071420;28;20498;-57
2022/01/21 01:20:43;;;;;;;7.95;1.88;;;25.20;79.20;;;;;;5073052;28;20170;-55
2022/01/21 01:23:26;;;;;;;5.28;1.50;;;25.30;78.50;;;;;;5072270;28;20031;-56
2022/01/21 01:28:41;;;;;;;3.70;1.30;;;25.40;78.50;;;;;;5072837;28;20504;-56
2022/01/21 01:31:08;;;;;;;4.38;1.75;;;25.40;78.00;;;;;;5072198;28;20045;-55
2022/01/21 01:33:38;;;;;;;6.47;1.80;;;25.50;78.00;;;;;;5071854;28;20032;-55
2022/01/21 01:36:08;;;;;;;4.13;1.77;;;25.40;77.60;;;;;;5072186;28;20383;-57
2022/01/21 01:39:31;;;;;;;5.88;1.45;;;25.40;78.10;;;;;;5072068;28;20107;-62
2022/01/21 01:41:35;;;;;;;6.83;1.57;;;25.40;78.20;;;;;;5063758;28;20036;-61
2022/01/21 01:49:36;;;;;;;9.50;1.77;;;25.40;79.20;;;;;;5073563;28;20077;-58
2022/01/21 01:52:08;;;;;;;4.88;1.75;;;25.30;78.90;;;;;;5071858;28;20074;-57
2022/01/21 01:54:38;;;;;;;3.63;1.58;;;25.40;79.30;;;;;;5071748;28;20048;-56
2022/01/21 01:57:06;;;;;;;4.13;1.52;;;25.40;79.10;;;;;;5071697;28;20067;-59
2022/01/21 01:59:34;;;;;;;3.92;1.58;;;25.50;78.90;;;;;;5071457;28;20035;-59
2022/01/21 02:02:06;;;;;;;6.22;1.92;;;25.50;78.70;;;;;;5072262;28;20133;-61
2022/01/21 02:04:33;;;;;;;3.75;1.48;;;25.50;78.10;;;;;;5072625;28;20170;-57
2022/01/21 02:07:01;;;;;;;4.10;1.20;;;25.50;78.60;;;;;;5071348;28;20036;-62
2022/01/21 02:09:31;;;;;;;4.38;1.80;;;25.50;78.70;;;;;;5071686;28;20016;-59
2022/01/21 02:11:58;;;;;;;5.85;1.88;;;25.50;78.20;;;;;;5071496;28;20027;-52
2022/01/21 02:14:34;;;;;;;4.78;1.73;;;25.50;78.10;;;;;;5071901;28;20079;-57
2022/01/21 02:22:29;;;;;;;4.88;1.80;;;25.40;79.30;;;;;;5071111;28;20390;-52
2022/01/21 02:25:00;;;;;;;2.45;1.50;;;25.30;79.40;;;;;;5069931;28;20339;-54
2022/01/21 02:27:27;;;;;;;3.75;1.58;;;25.30;79.30;;;;;;5069928;28;20036;-55
2022/01/21 02:30:01;;;;;;;5.07;1.90;;;25.30;79.60;;;;;;5071023;28;20392;-54
2022/01/21 02:32:31;;;;;;;4.10;1.67;;;25.30;79.60;;;;;;5071709;28;20025;-51
2022/01/21 02:34:58;;;;;;;7.28;1.95;;;25.30;80.00;;;;;;5070433;28;20031;-56
2022/01/21 02:37:26;;;;;;;3.75;1.48;;;25.30;79.80;;;;;;5070373;28;20039;-58
2022/01/21 02:39:53;;;;;;;3.40;1.45;;;25.20;80.50;;;;;;5071669;28;20028;-57
2022/01/21 02:42:21;;;;;;;2.05;1.20;;;25.20;80.70;;;;;;5071260;28;20025;-54
2022/01/21 02:44:48;;;;;;;3.75;1.65;;;25.20;80.70;;;;;;5071323;28;20086;-60
2022/01/21 02:47:15;;;;;;;5.63;1.70;;;25.20;80.80;;;;;;5071707;28;20111;-58
2022/01/21 02:49:43;;;;;;;4.40;1.30;;;25.20;80.50;;;;;;5071324;28;20025;-57
2022/01/21 02:52:11;;;;;;;6.35;1.17;;;25.20;80.90;;;;;;5069801;28;20379;-56
2022/01/21 02:54:38;;;;;;;3.28;1.17;;;25.10;81.10;;;;;;5071146;28;20493;-58
2022/01/21 02:57:09;;;;;;;5.82;1.35;;;25.10;81.60;;;;;;5071570;28;20036;-55
2022/01/21 02:59:37;;;;;;;3.22;1.30;;;25.00;81.70;;;;;;5071499;28;20024;-57
2022/01/21 03:02:05;;;;;;;4.65;1.60;;;25.00;81.70;;;;;;5071460;28;20025;-57
2022/01/21 03:07:02;;;;;;;3.05;1.52;;;25.00;82.00;;;;;;5071801;28;20036;-64
2022/01/21 03:09:29;;;;;;;2.97;1.23;;;25.00;81.90;;;;;;5074062;28;20020;-56
2022/01/21 03:11:57;;;;;;;8.60;1.92;;;25.00;81.60;;;;;;5075984;28;20025;-58
2022/01/21 03:14:25;;;;;;;3.25;1.30;;;25.00;81.70;;;;;;5075304;28;20017;-53
2022/01/21 03:16:53;;;;;;;10.48;1.88;;;25.00;82.20;;;;;;5075298;28;20071;-56
2022/01/21 03:19:20;;;;;;;5.72;1.75;;;25.10;81.10;;;;;;5073198;28;20339;-53
2022/01/21 03:21:48;;;;;;;7.93;1.70;;;25.10;81.80;;;;;;5075802;28;20086;-57
2022/01/21 03:24:15;;;;;;;5.50;1.65;;;25.10;81.70;;;;;;5074941;28;20081;-60
2022/01/21 03:26:43;;;;;;;21.70;2.90;;;25.10;81.50;;;;;;5074992;28;20037;-54
2022/01/21 03:29:10;;;;;;;3.60;1.25;;;25.00;81.20;;;;;;5074462;28;20021;-55
2022/01/21 03:31:38;;;;;;;5.35;2.17;;;25.10;81.40;;;;;;5074853;28;20024;-63
2022/01/21 03:34:05;;;;;;;4.10;1.08;;;25.10;81.60;;;;;;5074234;28;20021;-55
2022/01/21 03:36:35;;;;;;;7.40;1.80;;;25.10;80.90;;;;;;5074223;28;20035;-55
2022/01/21 03:39:03;;;;;;;7.43;1.92;;;25.20;81.20;;;;;;5074328;28;20028;-54
2022/01/21 03:41:30;;;;;;;6.50;1.98;;;25.20;81.80;;;;;;5074771;28;20120;-56
2022/01/21 03:43:58;;;;;;;3.85;1.25;;;25.20;81.10;;;;;;5074531;28;20032;-57
2022/01/21 03:46:25;;;;;;;4.13;1.23;;;25.20;81.50;;;;;;5074619;28;20028;-59
2022/01/21 03:48:53;;;;;;;3.67;1.35;;;25.10;82.10;;;;;;5074803;28;20165;-61
2022/01/21 03:51:21;;;;;;;6.60;2.40;;;25.10;81.90;;;;;;5074435;28;20028;-56
2022/01/21 03:53:48;;;;;;;4.05;1.05;;;25.10;82.10;;;;;;5073974;28;20035;-58
2022/01/21 03:56:17;;;;;;;4.03;1.70;;;25.10;82.20;;;;;;5073864;28;20171;-58
2022/01/21 03:58:45;;;;;;;5.43;1.45;;;25.00;82.20;;;;;;5073524;28;20125;-52
2022/01/21 04:01:12;;;;;;;7.95;1.42;;;25.00;82.30;;;;;;5072966;28;20032;-60
2022/01/21 04:03:40;;;;;;;3.72;1.48;;;25.00;82.30;;;;;;5074559;28;20203;-60
2022/01/21 04:06:07;;;;;;;3.13;1.15;;;24.90;82.60;;;;;;5073468;28;20033;-54
2022/01/21 04:08:35;;;;;;;3.05;1.02;;;24.90;82.80;;;;;;5074273;28;20027;-57
2022/01/21 04:11:03;;;;;;;3.20;1.65;;;24.90;83.00;;;;;;5073914;28;20029;-59
2022/01/21 04:13:34;;;;;;;3.72;1.80;;;24.80;83.10;;;;;;5072626;28;20020;-61
2022/01/21 04:16:04;;;;;;;4.70;1.30;;;24.80;83.50;;;;;;5073573;28;20097;-58
2022/01/21 04:18:33;;;;;;;3.95;1.35;;;24.70;83.60;;;;;;5073585;28;20126;-53
2022/01/21 04:21:00;;;;;;;6.00;1.77;;;24.70;83.70;;;;;;5072839;28;20021;-56
2022/01/21 04:23:28;;;;;;;9.00;2.38;;;24.70;84.00;;;;;;5073570;28;20020;-58
2022/01/21 04:25:56;;;;;;;6.30;1.92;;;24.70;84.10;;;;;;5073248;28;20348;-54
2022/01/21 04:28:24;;;;;;;3.53;1.50;;;24.70;84.40;;;;;;5073145;28;20032;-60
2022/01/21 04:30:51;;;;;;;3.25;1.13;;;24.60;84.50;;;;;;5073554;28;20424;-53
2022/01/21 04:33:19;;;;;;;4.15;1.52;;;24.60;84.30;;;;;;5073298;28;20483;-60
2022/01/21 04:35:46;;;;;;;3.88;1.58;;;24.60;84.50;;;;;;5073331;28;20028;-55
2022/01/21 04:38:17;;;;;;;7.35;1.90;;;24.60;84.80;;;;;;5072591;28;20155;-56
2022/01/21 04:40:52;;;;;;;5.70;1.45;;;24.60;84.30;;;;;;5073366;28;20033;-56
2022/01/21 04:48:50;;;;;;;4.75;1.58;;;24.70;84.70;;;;;;5073475;28;20085;-53
2022/01/21 04:51:26;;;;;;;5.50;1.63;;;24.70;84.50;;;;;;5072186;28;20024;-61
2022/01/21 04:53:54;;;;;;;8.82;1.77;;;24.70;84.00;;;;;;5072831;28;20037;-61
2022/01/21 04:56:22;;;;;;;3.22;1.38;;;24.70;84.20;;;;;;5071937;28;20040;-57
2022/01/21 04:58:50;;;;;;;5.35;1.38;;;24.70;84.20;;;;;;5072812;28;20021;-54
2022/01/21 05:01:17;;;;;;;5.13;1.70;;;24.70;84.30;;;;;;5073092;28;20107;-58
2022/01/21 05:03:46;;;;;;;3.95;1.33;;;24.70;84.30;;;;;;5072566;28;20099;-56
2022/01/21 05:06:14;;;;;;;6.35;1.73;;;24.70;84.30;;;;;;5072378;28;20032;-57
2022/01/21 05:08:47;;;;;;;4.00;1.38;;;24.70;84.40;;;;;;5055692;28;20024;-63
2022/01/21 05:11:16;;;;;;;3.53;1.23;;;24.70;84.70;;;;;;5073278;28;20107;-52
2022/01/21 05:13:54;;;;;;;11.57;1.63;;;24.70;84.60;;;;;;5073178;28;20114;-59
2022/01/21 05:18:56;;;;;;;4.32;1.65;;;24.60;84.60;;;;;;5072393;28;20024;-61
2022/01/21 05:21:23;;;;;;;4.32;1.50;;;24.60;84.70;;;;;;5071119;28;20050;-58
2022/01/21 05:23:51;;;;;;;4.18;1.38;;;24.60;84.80;;;;;;5072771;28;20025;-60
2022/01/21 05:26:18;;;;;;;4.72;1.08;;;24.60;83.70;;;;;;5072662;28;20112;-61
2022/01/21 05:28:50;;;;;;;3.25;1.20;;;24.60;84.10;;;;;;5072862;28;20132;-58
2022/01/21 05:31:17;;;;;;;4.95;1.95;;;24.60;84.90;;;;;;5073027;28;20029;-64
2022/01/21 05:33:45;;;;;;;5.00;1.50;;;24.60;84.20;;;;;;5072277;28;20028;-53
2022/01/21 05:36:12;;;;;;;5.50;1.48;;;24.60;84.50;;;;;;5072110;28;20374;-53
2022/01/21 05:38:40;;;;;;;5.22;1.20;;;24.60;85.00;;;;;;5072853;28;20024;-53
2022/01/21 05:41:07;;;;;;;4.15;1.30;;;24.60;85.00;;;;;;5072861;28;20101;-53
2022/01/21 05:43:35;;;;;;;4.32;1.48;;;24.60;84.90;;;;;;5072437;28;20059;-58
2022/01/21 05:48:48;;;;;;;8.63;1.52;;;24.50;85.50;;;;;;5072184;28;20019;-56
2022/01/21 05:51:18;;;;;;;4.95;1.30;;;24.50;85.60;;;;;;5072340;28;20090;-56
2022/01/21 05:53:46;;;;;;;5.15;1.27;;;24.50;85.80;;;;;;5072659;28;20032;-56
2022/01/21 05:56:14;;;;;;;5.55;1.38;;;24.50;85.80;;;;;;5072366;28;20491;-58
2022/01/21 05:58:41;;;;;;;6.80;1.48;;;24.50;85.90;;;;;;5073769;28;20467;-56
2022/01/21 06:01:09;;;;;;;3.38;1.50;;;24.40;85.80;;;;;;5073770;28;20028;-57
2022/01/21 06:03:37;;;;;;;3.70;1.38;;;24.40;86.00;;;;;;5070951;28;20093;-59
2022/01/21 06:06:11;;;;;;;3.70;1.35;;;24.40;86.40;;;;;;5072547;28;20062;-61
2022/01/21 06:08:39;;;;;;;6.07;1.42;;;24.30;86.50;;;;;;5073326;28;20154;-63
2022/01/21 06:11:07;;;;;;;3.03;0.95;;;24.30;86.30;;;;;;5073903;28;20039;-62
2022/01/21 06:13:35;;;;;;;2.05;1.35;;;24.30;86.40;;;;;;5071748;28;20029;-57
2022/01/21 06:16:02;;;;;;;3.83;1.20;;;24.30;86.40;;;;;;5073016;28;20082;-57
2022/01/21 06:18:30;;;;;;;4.63;1.55;;;24.30;86.60;;;;;;5072226;28;20036;-60
2022/01/21 06:20:57;;;;;;;6.15;1.60;;;24.30;86.70;;;;;;5072570;28;20031;-59
2022/01/21 06:23:26;;;;;;;4.40;1.40;;;24.30;86.70;;;;;;5073168;28;20059;-58
2022/01/21 06:25:54;;;;;;;5.03;1.42;;;24.30;86.90;;;;;;5072737;28;20029;-60
2022/01/21 06:28:27;;;;;;;2.80;1.10;;;24.20;86.90;;;;;;5073331;28;20028;-63
2022/01/21 06:31:25;;;;;;;3.28;1.10;;;24.20;87.00;;;;;;5072671;28;20029;-57
2022/01/21 06:33:57;;;;;;;3.67;1.45;;;24.20;87.10;;;;;;5073226;28;20033;-49
2022/01/21 06:36:23;;;;;;;;;;;24.20;87.10;;;;;;5073072;28;20070;-63
2022/01/21 06:38:54;;;;;;;5.28;1.48;;;24.20;87.20;;;;;;5071762;28;19904;-63
2022/01/21 06:41:25;;;;;;;3.13;1.23;;;24.20;87.10;;;;;;5072541;28;20109;-64
2022/01/21 06:43:53;;;;;;;3.17;1.13;;;24.20;87.20;;;;;;5074249;28;20063;-59
2022/01/21 06:46:20;;;;;;;3.17;1.50;;;24.10;87.00;;;;;;5076237;28;20040;-61
2022/01/21 06:48:47;;;;;;;5.13;1.40;;;24.20;87.30;;;;;;5076987;28;20028;-64
2022/01/21 06:51:15;;;;;;;2.38;1.15;;;24.20;87.30;;;;;;5074953;28;20033;-59
2022/01/21 06:53:43;;;;;;;2.40;1.00;;;24.10;87.30;;;;;;5075942;28;20024;-61
2022/01/21 06:56:10;;;;;;;6.95;1.20;;;24.20;88.00;;;;;;5076428;28;20495;-56
2022/01/21 06:58:38;;;;;;;3.33;1.33;;;24.10;87.40;;;;;;5076838;28;20421;-59
2022/01/21 07:01:05;;;;;;;5.82;1.55;;;24.10;87.30;;;;;;5076210;28;20036;-54
2022/01/21 07:03:33;;;;;;;2.85;1.15;;;24.10;87.40;;;;;;5076288;28;20024;-58
2022/01/21 07:06:00;;;;;;;4.38;1.67;;;24.10;87.30;;;;;;5075575;28;20028;-57
2022/01/21 07:08:28;;;;;;;2.35;1.10;;;24.10;87.40;;;;;;5076559;28;20044;-58
2022/01/21 07:10:55;;;;;;;3.35;1.48;;;24.10;87.40;;;;;;5075896;28;20273;-62
2022/01/21 07:13:22;;;;;;;2.55;1.35;;;24.10;87.40;;;;;;5076083;28;20317;-58
2022/01/21 07:15:50;;;;;;;4.18;0.95;;;24.10;87.50;;;;;;5075937;28;20031;-56
2022/01/21 07:18:17;;;;;;;4.70;1.27;;;24.10;87.50;;;;;;5074037;28;20051;-58
2022/01/21 07:20:45;;;;;;;7.00;1.92;;;24.10;87.50;;;;;;5075634;28;20429;-61
2022/01/21 07:23:12;;;;;;;3.13;1.35;;;24.00;87.60;;;;;;5075514;28;20052;-62
2022/01/21 07:25:40;;;;;;;1.85;1.00;;;24.00;87.70;;;;;;5075151;28;20360;-62
2022/01/21 07:28:08;;;;;;;3.78;1.67;;;24.00;87.80;;;;;;5073734;28;20028;-59
2022/01/21 07:30:36;;;;;;;3.38;1.00;;;24.00;87.70;;;;;;5075190;28;20356;-59
2022/01/21 07:33:03;;;;;;;2.15;1.10;;;24.00;87.70;;;;;;5074795;28;20021;-59
2022/01/21 07:35:31;;;;;;;2.30;1.20;;;24.00;87.70;;;;;;5075075;28;20117;-63
2022/01/21 07:37:59;;;;;;;5.25;1.30;;;24.00;87.80;;;;;;5074738;28;20020;-57
2022/01/21 07:40:27;;;;;;;2.63;0.93;;;24.00;87.80;;;;;;5074745;28;20024;-60
2022/01/21 07:42:55;;;;;;;5.00;1.38;;;24.00;87.80;;;;;;5074531;28;20033;-59
2022/01/21 07:45:23;;;;;;;4.05;1.10;;;24.00;87.70;;;;;;5074898;28;20025;-60
2022/01/21 07:47:51;;;;;;;4.68;1.13;;;24.00;87.90;;;;;;5075379;28;20036;-59
2022/01/21 07:50:18;;;;;;;5.15;1.20;;;24.00;87.70;;;;;;5075193;28;20032;-59
2022/01/21 07:52:46;;;;;;;4.50;1.45;;;24.00;87.90;;;;;;5074822;28;20138;-62
2022/01/21 07:55:13;;;;;;;2.47;0.90;;;24.00;87.80;;;;;;5072296;28;20067;-58
2022/01/21 07:57:40;;;;;;;2.20;0.93;;;24.00;87.90;;;;;;5074886;28;20029;-62
2022/01/21 08:00:09;;;;;;;1.88;0.90;;;24.00;87.90;;;;;;5074709;28;20025;-61
2022/01/21 08:02:36;;;;;;;5.28;1.42;;;23.90;87.80;;;;;;5075259;28;20024;-56
2022/01/21 08:05:05;;;;;;;3.33;1.40;;;23.90;87.90;;;;;;5074630;28;20021;-61
2022/01/21 08:07:32;;;;;;;3.38;1.00;;;24.00;88.00;;;;;;5074715;28;20037;-58
2022/01/21 08:10:00;;;;;;;3.45;1.45;;;24.00;88.10;;;;;;5074571;28;20036;-63
2022/01/21 08:12:27;;;;;;;3.78;1.27;;;23.90;88.10;;;;;;5074310;28;20031;-56
2022/01/21 08:14:55;;;;;;;3.88;1.38;;;23.90;88.10;;;;;;5072438;28;20384;-57
2022/01/21 08:17:23;;;;;;;2.28;1.05;;;23.90;88.10;;;;;;5073986;28;20112;-59
2022/01/21 08:19:50;;;;;;;2.42;1.02;;;23.90;88.20;;;;;;5073032;28;20118;-61
2022/01/21 08:22:18;;;;;;;1.65;0.90;;;23.90;88.20;;;;;;5072509;28;20021;-58
2022/01/21 08:24:45;;;;;;;1.52;1.00;;;23.90;88.20;;;;;;5074543;28;20382;-60
2022/01/21 08:27:12;;;;;;;2.35;1.23;;;23.90;88.30;;;;;;5073441;28;20040;-61
2022/01/21 08:29:40;;;;;;;2.40;1.02;;;23.90;88.20;;;;;;5073823;28;20170;-60
2022/01/21 08:32:07;;;;;;;3.05;0.93;;;23.90;88.20;;;;;;5073462;28;20478;-60
2022/01/21 08:34:35;;;;;;;3.40;1.15;;;23.90;88.30;;;;;;5073887;28;20027;-61
2022/01/21 08:37:05;;;;;;;4.15;1.50;;;23.90;88.30;;;;;;5073649;28;20107;-51
2022/01/21 08:39:33;;;;;;;2.40;1.00;;;23.90;88.40;;;;;;5074011;28;20027;-56
2022/01/21 08:42:02;;;;;;;2.78;1.13;;;23.90;88.40;;;;;;5073647;28;20036;-52
2022/01/21 08:44:32;;;;;;;3.08;1.48;;;23.90;88.30;;;;;;5073706;28;20082;-56
2022/01/21 08:46:59;;;;;;;4.03;1.50;;;23.90;88.40;;;;;;5073252;28;20028;-62
2022/01/21 08:49:28;;;;;;;1.30;0.95;;;23.90;88.40;;;;;;5072070;28;20060;-57
2022/01/21 08:51:57;;;;;;;1.48;1.00;;;23.90;88.40;;;;;;5073581;28;20110;-54
2022/01/21 08:54:26;;;;;;;4.65;1.15;;;23.80;88.50;;;;;;5074048;28;20548;-53
2022/01/21 08:56:55;;;;;;;3.75;0.95;;;23.80;88.40;;;;;;5073804;28;20033;-57
2022/01/21 08:59:26;;;;;;;3.47;1.10;;;23.80;88.50;;;;;;5073525;28;20478;-61
2022/01/21 09:01:54;;;;;;;3.90;1.50;;;23.80;88.50;;;;;;5073486;28;20363;-57
2022/01/21 09:04:22;;;;;;;2.50;1.00;;;23.80;88.50;;;;;;5073736;28;20024;-60
2022/01/21 09:06:50;;;;;;;3.35;1.55;;;23.80;88.60;;;;;;5072938;28;20036;-55
2022/01/21 09:09:17;;;;;;;5.65;1.42;;;23.80;88.60;;;;;;5073738;28;20043;-54
2022/01/21 09:11:45;;;;;;;2.38;1.27;;;23.80;89.10;;;;;;5073423;28;20021;-57
2022/01/21 09:14:12;;;;;;;2.30;1.05;;;23.80;88.60;;;;;;5073095;28;20024;-55
2022/01/21 09:20:02;;;;;;;2.80;1.20;;;23.80;88.70;;;;;;5073621;28;20028;-59
2022/01/21 09:22:30;;;;;;;2.88;1.10;;;23.70;88.70;;;;;;5073499;28;20039;-59
2022/01/21 09:24:57;;;;;;;1.88;0.85;;;23.70;88.80;;;;;;5072841;28;20024;-58
2022/01/21 09:27:24;;;;;;;2.13;1.30;;;23.70;88.80;;;;;;5072839;28;20032;-63
2022/01/21 09:29:52;;;;;;;2.10;1.00;;;23.70;89.00;;;;;;5072514;28;20455;-56
2022/01/21 09:32:19;;;;;;;4.22;1.48;;;23.70;89.00;;;;;;5072911;28;20032;-54
2022/01/21 09:34:47;;;;;;;7.07;1.77;;;23.70;89.00;;;;;;5072305;28;20028;-51
2022/01/21 09:37:14;;;;;;;3.25;1.35;;;23.60;89.00;;;;;;5072603;28;20031;-60
2022/01/21 09:39:43;;;;;;;2.85;1.40;;;23.60;89.10;;;;;;5071193;28;20170;-62
2022/01/21 09:42:14;;;;;;;7.07;1.17;;;23.60;89.00;;;;;;5071897;28;20024;-55
2022/01/21 09:44:44;;;;;;;3.15;1.10;;;23.60;89.20;;;;;;5073330;28;20025;-54
2022/01/21 09:47:15;;;;;;;2.22;0.90;;;23.60;89.20;;;;;;5071619;28;20482;-54
2022/01/21 09:49:44;;;;;;;2.30;1.20;;;23.60;89.30;;;;;;5073164;28;20044;-51
2022/01/21 09:52:16;;;;;;;2.88;1.30;;;23.60;89.30;;;;;;5072504;28;20028;-54
2022/01/21 09:54:48;;;;;;;3.25;1.30;;;23.60;89.40;;;;;;5072264;28;20044;-59
2022/01/21 09:57:23;;;;;;;3.25;1.20;;;23.60;89.40;;;;;;5072723;28;20032;-55
2022/01/21 09:59:52;;;;;;;3.05;1.08;;;23.60;89.40;;;;;;5072594;28;20096;-48
2022/01/21 10:02:25;;;;;;;2.33;1.00;;;23.60;89.50;;;;;;5073104;28;20031;-49
2022/01/21 10:04:54;;;;;;;2.17;1.08;;;23.50;89.40;;;;;;5072637;28;20334;-61
2022/01/21 10:07:22;;;;;;;1.67;0.88;;;23.50;89.40;;;;;;5072694;28;20062;-60
2022/01/21 10:09:53;;;;;;;3.05;1.17;;;23.50;89.40;;;;;;5072757;28;20039;-57
2022/01/21 10:12:20;;;;;;;1.65;1.05;;;23.50;89.50;;;;;;5071139;28;20032;-58
2022/01/21 10:14:48;;;;;;;4.70;1.20;;;23.50;89.60;;;;;;5072626;28;20044;-55
2022/01/21 10:17:15;;;;;;;3.03;1.00;;;23.50;89.60;;;;;;5071556;28;20028;-61
2022/01/21 10:19:47;;;;;;;2.42;1.00;;;23.50;89.60;;;;;;5072129;28;20067;-61
2022/01/21 10:22:19;;;;;;;3.15;0.80;;;23.50;89.60;;;;;;5072641;28;20028;-52
2022/01/21 10:24:54;;;;;;;4.03;1.20;;;23.50;89.60;;;;;;5072298;28;20488;-58
2022/01/21 10:27:32;;;;;;;3.17;1.25;;;23.50;89.60;;;;;;5072395;28;20032;-61
2022/01/21 10:30:00;;;;;;;1.33;0.85;;;23.50;89.70;;;;;;5071870;28;20059;-64
2022/01/21 10:32:40;;;;;;;2.83;1.10;;;23.50;89.70;;;;;;5072401;28;20031;-61
2022/01/21 10:35:34;;;;;;;3.75;1.10;;;23.40;89.60;;;;;;5072179;28;20021;-54
2022/01/21 10:38:31;;;;;;;2.47;1.00;;;23.50;89.70;;;;;;5072167;28;20423;-60
2022/01/21 10:41:07;;;;;;;2.75;1.00;;;23.50;89.70;;;;;;5069069;28;20037;-61
2022/01/21 10:43:37;;;;;;;1.75;0.82;;;23.40;89.70;;;;;;5072255;28;20029;-57
2022/01/21 10:46:05;;;;;;;2.40;1.10;;;23.40;89.70;;;;;;5072226;28;20028;-60
2022/01/21 10:48:57;;;;;;;1.67;1.05;;;23.40;89.70;;;;;;5071010;28;20062;-57
2022/01/21 10:51:28;;;;;;;2.83;1.00;;;23.40;89.80;;;;;;5072177;28;20029;-62
2022/01/21 10:53:58;;;;;;;2.55;1.15;;;23.40;89.70;;;;;;5071560;28;20253;-61
2022/01/21 10:56:29;;;;;;;2.78;0.95;;;23.40;90.10;;;;;;5072508;28;20450;-59
2022/01/21 10:58:59;;;;;;;2.50;1.10;;;23.40;89.70;;;;;;5072033;28;20532;-59
2022/01/21 11:01:30;;;;;;;2.78;0.95;;;23.30;89.60;;;;;;5072424;28;20536;-56
2022/01/21 11:04:13;;;;;;;2.05;0.70;;;23.30;89.70;;;;;;5072263;28;20097;-59
2022/01/21 11:06:56;;;;;;;6.30;1.50;;;23.30;89.70;;;;;;5070358;28;20049;-60
2022/01/21 11:09:25;;;;;;;1.92;1.30;;;23.30;89.60;;;;;;5072172;28;20021;-65
2022/01/21 11:12:22;;;;;;;2.08;0.80;;;23.30;89.60;;;;;;5071699;28;20183;-59
2022/01/21 11:15:00;;;;;;;2.80;0.80;;;23.30;89.60;;;;;;5063651;28;20062;-61
2022/01/21 11:17:28;;;;;;;2.42;1.20;;;23.20;89.60;;;;;;5072034;28;20382;-55
2022/01/21 11:23:20;;;;;;;5.20;1.35;;;23.20;89.60;;;;;;5072521;28;20497;-60
2022/01/21 11:25:57;;;;;;;3.13;1.38;;;23.20;89.70;;;;;;5072255;28;20036;-60
2022/01/21 11:28:27;;;;;;;2.78;0.85;;;23.20;89.70;;;;;;5072847;28;20081;-61
2022/01/21 11:30:56;;;;;;;3.17;1.20;;;23.20;89.70;;;;;;5074204;28;20028;-60
2022/01/21 11:33:24;;;;;;;1.75;0.80;;;23.10;89.70;;;;;;5075435;28;20032;-62
2022/01/21 11:35:53;;;;;;;2.25;1.08;;;23.10;89.70;;;;;;5075500;28;20378;-54
2022/01/21 11:38:25;;;;;;;1.77;0.88;;;23.10;89.80;;;;;;5075895;28;20408;-60
2022/01/21 11:40:54;;;;;;;2.50;1.23;;;23.10;89.70;;;;;;5075600;28;20036;-59
2022/01/21 11:43:22;;;;;;;3.08;0.88;;;23.10;89.80;;;;;;5075467;28;20442;-60
2022/01/21 11:52:21;;;;;;;3.85;1.20;;;23.10;89.90;;;;;;5075934;28;20046;-58
2022/01/21 11:54:50;;;;;;;2.75;1.15;;;23.10;89.90;;;;;;5067475;28;20051;-61
2022/01/21 11:57:30;;;;;;;2.78;1.00;;;23.10;90.20;;;;;;5075119;28;20043;-56
2022/01/21 12:00:17;;;;;;;3.15;0.95;;;23.00;89.80;;;;;;5074697;28;20025;-60
2022/01/21 12:02:51;;;;;;;2.00;1.00;;;23.00;89.80;;;;;;5075361;28;20047;-60
2022/01/21 12:05:27;;;;;;;3.22;1.20;;;23.00;89.90;;;;;;5076080;28;20051;-62
2022/01/21 12:07:55;;;;;;;1.83;1.10;;;23.00;89.90;;;;;;5075272;28;20198;-59
2022/01/21 12:10:26;;;;;;;3.50;1.10;;;23.00;89.90;;;;;;5074969;28;20035;-58
2022/01/21 12:20:45;;;;;;;1.70;0.90;;;22.90;89.80;;;;;;5073936;28;20025;-60
2022/01/21 12:23:19;;;;;;;2.78;0.90;;;22.90;89.90;;;;;;5072879;28;20029;-58
2022/01/21 12:26:23;;;;;;;2.58;1.17;;;22.90;89.80;;;;;;5074086;28;20024;-52
2022/01/21 12:28:54;;;;;;;6.82;1.52;;;22.90;89.80;;;;;;5074131;28;20033;-59
2022/01/21 12:31:24;;;;;;;2.13;1.00;;;22.90;89.80;;;;;;5074290;28;20078;-56
2022/01/21 12:34:03;;;;;;;3.15;1.45;;;22.90;89.80;;;;;;5074117;28;20024;-52
2022/01/21 12:36:35;;;;;;;2.63;1.15;;;22.90;89.80;;;;;;5074442;28;20082;-60
2022/01/21 12:41:37;;;;;;;2.88;1.02;;;22.90;89.80;;;;;;5073691;28;19908;-60
2022/01/21 12:44:06;;;;;;;3.50;1.42;;;22.90;90.10;;;;;;5074510;28;20049;-63
2022/01/21 12:46:44;;;;;;;3.20;0.93;;;22.90;89.80;;;;;;5074041;28;20064;-60
2022/01/21 12:49:34;;;;;;;3.13;0.90;;;22.90;89.80;;;;;;5074111;28;20028;-61
2022/01/21 12:57:30;;;;;;;1.73;0.95;;;22.90;89.70;;;;;;5074552;28;20573;-60
2022/01/21 13:00:09;;;;;;;2.97;1.15;;;22.90;89.80;;;;;;5072796;28;20029;-58
2022/01/21 13:02:36;;;;;;;2.05;0.90;;;22.90;89.80;;;;;;5073711;28;20024;-59
2022/01/21 13:05:13;;;;;;;3.67;1.17;;;22.90;89.80;;;;;;5073729;28;20359;-59
2022/01/21 13:08:12;;;;;;;1.73;0.98;;;22.90;89.80;;;;;;5073685;28;20033;-53
2022/01/21 13:10:40;;;;;;;2.08;1.10;;;22.90;89.80;;;;;;5073383;28;20033;-57
2022/01/21 13:15:40;;;;;;;2.53;1.10;;;22.90;89.90;;;;;;5073225;28;20491;-58
2022/01/21 13:18:18;;;;;;;3.08;1.08;;;22.80;89.80;;;;;;5073018;28;20036;-58
2022/01/21 13:20:57;;;;;;;3.75;0.80;;;22.80;89.80;;;;;;5073503;28;20024;-56
2022/01/21 13:26:39;;;;;;;2.53;1.13;;;22.80;89.80;;;;;;5066433;28;20039;-59
2022/01/21 13:29:09;;;;;;;2.40;1.10;;;22.80;89.80;;;;;;5073109;28;20118;-60
2022/01/21 13:31:58;;;;;;;2.72;0.90;;;22.80;89.90;;;;;;5073397;28;20549;-57
2022/01/21 13:34:40;;;;;;;2.22;0.88;;;22.80;89.90;;;;;;5072703;28;20032;-58
2022/01/21 13:37:18;;;;;;;2.42;0.98;;;22.80;89.90;;;;;;5073151;28;20100;-56
2022/01/21 13:39:47;;;;;;;1.98;0.90;;;22.80;90.00;;;;;;5073140;28;20028;-62
2022/01/21 13:42:20;;;;;;;2.05;0.77;;;22.80;90.00;;;;;;5072637;28;20061;-60
2022/01/21 13:45:01;;;;;;;2.15;0.80;;;22.80;90.00;;;;;;5072677;28;20482;-59
2022/01/21 13:47:29;;;;;;;2.78;1.15;;;22.80;90.00;;;;;;5072489;28;20071;-59
2022/01/21 13:50:00;;;;;;;3.45;1.35;;;22.80;89.90;;;;;;5072661;28;20025;-59
2022/01/21 13:52:52;;;;;;;2.45;0.98;;;22.80;90.00;;;;;;5070381;28;20115;-58
2022/01/21 13:55:43;;;;;;;2.28;1.17;;;22.80;90.00;;;;;;5072324;28;20102;-55
2022/01/21 13:58:23;;;;;;;1.63;0.75;;;22.80;90.00;;;;;;5072561;28;20044;-58
2022/01/21 14:00:52;;;;;;;5.63;1.40;;;22.80;90.00;;;;;;5072624;28;20023;-61
2022/01/21 14:03:37;;;;;;;3.05;0.90;;;22.80;90.00;;;;;;5072509;28;20104;-59
2022/01/21 14:06:25;;;;;;;3.17;1.25;;;22.70;89.90;;;;;;5072141;28;20025;-61
2022/01/21 14:08:59;;;;;;;3.03;1.05;;;22.70;89.90;;;;;;5072557;28;20053;-60
2022/01/21 14:11:40;;;;;;;2.03;1.20;;;22.80;90.00;;;;;;5072535;28;20024;-62
2022/01/21 14:14:09;;;;;;;2.05;1.20;;;22.70;90.00;;;;;;5071999;28;20031;-59
2022/01/21 14:16:46;;;;;;;1.67;0.80;;;22.70;90.00;;;;;;5072659;28;20025;-57
2022/01/21 14:19:19;;;;;;;4.05;1.27;;;22.70;90.00;;;;;;5072288;28;20028;-60
2022/01/21 14:21:50;;;;;;;2.72;0.90;;;22.70;90.00;;;;;;5072560;28;20028;-64
2022/01/21 14:24:22;;;;;;;1.52;0.80;;;22.70;90.00;;;;;;5072837;28;20465;-58
2022/01/21 14:27:01;;;;;;;2.63;1.02;;;22.70;90.00;;;;;;5073533;28;20037;-61